sensor_id;sensor_type;location;lat;lon;timestamp;P1;durP1;ratioP1;P2;durP2;ratioP2
7199;SDS011;3641;49.082;8.200;2022-11-13T00:00:28;48.03;;;22.30;;
7199;SDS011;3641;49.082;8.200;2022-11-13T00:02:55;47.22;;;23.45;;
7199;SDS011;3641;49.082;8.200;2022-11-13T00:05:22;48.42;;;23.00;;
7199;SDS011;3641;49.082;8.200;2022-11-13T00:07:48;47.97;;;21.90;;
7199;SDS011;3641;49.082;8.200;2022-11-13T00:10:15;50.83;;;22.10;;
7199;SDS011;3641;49.082;8.200;2022-11-13T00:12:42;44.20;;;21.05;;
7199;SDS011;3641;49.082;8.200;2022-11-13T00:15:09;43.70;;;21.55;;
7199;SDS011;3641;49.082;8.200;2022-11-13T00:17:37;44.42;;;21.65;;
7199;SDS011;3641;49.082;8.200;2022-11-13T00:20:04;44.25;;;22.17;;
7199;SDS011;3641;49.082;8.200;2022-11-13T00:22:31;47.03;;;21.98;;
7199;SDS011;3641;49.082;8.200;2022-11-13T00:24:57;53.83;;;22.77;;
7199;SDS011;3641;49.082;8.200;2022-11-13T00:27:24;43.28;;;22.23;;
7199;SDS011;3641;49.082;8.200;2022-11-13T00:29:50;50.80;;;22.90;;
7199;SDS011;3641;49.082;8.200;2022-11-13T00:32:17;46.70;;;22.27;;
7199;SDS011;3641;49.082;8.200;2022-11-13T00:34:45;50.40;;;22.58;;
7199;SDS011;3641;49.082;8.200;2022-11-13T00:37:12;47.78;;;23.70;;
7199;SDS011;3641;49.082;8.200;2022-11-13T00:39:39;44.20;;;22.50;;
7199;SDS011;3641;49.082;8.200;2022-11-13T00:42:05;47.53;;;22.80;;
7199;SDS011;3641;49.082;8.200;2022-11-13T00:44:32;42.35;;;22.58;;
7199;SDS011;3641;49.082;8.200;2022-11-13T00:46:58;43.92;;;23.35;;
7199;SDS011;3641;49.082;8.200;2022-11-13T00:49:25;44.20;;;22.55;;
7199;SDS011;3641;49.082;8.200;2022-11-13T00:51:53;42.53;;;22.27;;
7199;SDS011;3641;49.082;8.200;2022-11-13T00:54:19;46.45;;;23.02;;
7199;SDS011;3641;49.082;8.200;2022-11-13T00:56:46;43.65;;;21.88;;
7199;SDS011;3641;49.082;8.200;2022-11-13T00:59:13;51.33;;;23.25;;
7199;SDS011;3641;49.082;8.200;2022-11-13T01:01:39;40.85;;;22.10;;
7199;SDS011;3641;49.082;8.200;2022-11-13T01:04:06;36.30;;;20.85;;
7199;SDS011;3641;49.082;8.200;2022-11-13T01:06:32;37.35;;;20.40;;
7199;SDS011;3641;49.082;8.200;2022-11-13T01:09:00;35.58;;;20.15;;
7199;SDS011;3641;49.082;8.200;2022-11-13T01:11:27;35.72;;;20.25;;
7199;SDS011;3641;49.082;8.200;2022-11-13T01:13:55;35.22;;;20.25;;
7199;SDS011;3641;49.082;8.200;2022-11-13T01:16:24;43.40;;;21.30;;
7199;SDS011;3641;49.082;8.200;2022-11-13T01:18:52;38.88;;;20.75;;
7199;SDS011;3641;49.082;8.200;2022-11-13T01:21:20;41.15;;;21.25;;
7199;SDS011;3641;49.082;8.200;2022-11-13T01:23:47;42.80;;;21.40;;
7199;SDS011;3641;49.082;8.200;2022-11-13T01:26:17;38.22;;;20.25;;
7199;SDS011;3641;49.082;8.200;2022-11-13T01:28:46;39.55;;;21.05;;
7199;SDS011;3641;49.082;8.200;2022-11-13T01:31:13;37.25;;;20.63;;
7199;SDS011;3641;49.082;8.200;2022-11-13T01:33:41;39.50;;;21.63;;
7199;SDS011;3641;49.082;8.200;2022-11-13T01:36:09;47.72;;;22.33;;
7199;SDS011;3641;49.082;8.200;2022-11-13T01:38:38;40.25;;;20.85;;
7199;SDS011;3641;49.082;8.200;2022-11-13T01:41:04;42.50;;;21.90;;
7199;SDS011;3641;49.082;8.200;2022-11-13T01:43:34;42.03;;;22.10;;
7199;SDS011;3641;49.082;8.200;2022-11-13T01:46:12;43.78;;;22.40;;
7199;SDS011;3641;49.082;8.200;2022-11-13T01:48:44;44.35;;;22.77;;
7199;SDS011;3641;49.082;8.200;2022-11-13T01:51:15;44.20;;;21.75;;
7199;SDS011;3641;49.082;8.200;2022-11-13T01:53:47;39.10;;;21.45;;
7199;SDS011;3641;49.082;8.200;2022-11-13T01:56:14;38.25;;;19.65;;
7199;SDS011;3641;49.082;8.200;2022-11-13T01:58:45;38.20;;;19.45;;
7199;SDS011;3641;49.082;8.200;2022-11-13T02:01:16;41.53;;;21.45;;
7199;SDS011;3641;49.082;8.200;2022-11-13T02:03:43;40.97;;;21.38;;
7199;SDS011;3641;49.082;8.200;2022-11-13T02:06:09;45.03;;;21.55;;
7199;SDS011;3641;49.082;8.200;2022-11-13T02:08:36;41.92;;;22.05;;
7199;SDS011;3641;49.082;8.200;2022-11-13T02:11:03;42.38;;;20.58;;
7199;SDS011;3641;49.082;8.200;2022-11-13T02:13:30;40.58;;;22.10;;
7199;SDS011;3641;49.082;8.200;2022-11-13T02:15:58;40.40;;;20.77;;
7199;SDS011;3641;49.082;8.200;2022-11-13T02:18:26;38.20;;;20.73;;
7199;SDS011;3641;49.082;8.200;2022-11-13T02:20:58;40.88;;;21.13;;
7199;SDS011;3641;49.082;8.200;2022-11-13T02:23:34;36.45;;;19.88;;
7199;SDS011;3641;49.082;8.200;2022-11-13T02:26:15;40.60;;;20.08;;
7199;SDS011;3641;49.082;8.200;2022-11-13T02:28:45;37.92;;;19.77;;
7199;SDS011;3641;49.082;8.200;2022-11-13T02:31:12;36.72;;;20.70;;
7199;SDS011;3641;49.082;8.200;2022-11-13T02:33:39;34.13;;;19.67;;
7199;SDS011;3641;49.082;8.200;2022-11-13T02:36:06;36.95;;;19.92;;
7199;SDS011;3641;49.082;8.200;2022-11-13T02:38:35;38.38;;;20.92;;
7199;SDS011;3641;49.082;8.200;2022-11-13T02:41:02;39.75;;;20.95;;
7199;SDS011;3641;49.082;8.200;2022-11-13T02:43:30;40.13;;;21.50;;
7199;SDS011;3641;49.082;8.200;2022-11-13T02:45:57;40.38;;;20.83;;
7199;SDS011;3641;49.082;8.200;2022-11-13T02:48:23;44.30;;;21.55;;
7199;SDS011;3641;49.082;8.200;2022-11-13T02:50:50;42.55;;;20.98;;
7199;SDS011;3641;49.082;8.200;2022-11-13T02:53:16;42.70;;;20.95;;
7199;SDS011;3641;49.082;8.200;2022-11-13T02:55:43;45.55;;;22.15;;
7199;SDS011;3641;49.082;8.200;2022-11-13T02:58:10;42.13;;;21.58;;
7199;SDS011;3641;49.082;8.200;2022-11-13T03:00:37;40.83;;;20.80;;
7199;SDS011;3641;49.082;8.200;2022-11-13T03:03:04;40.45;;;20.70;;
7199;SDS011;3641;49.082;8.200;2022-11-13T03:05:31;40.35;;;19.05;;
7199;SDS011;3641;49.082;8.200;2022-11-13T03:07:57;38.00;;;21.08;;
7199;SDS011;3641;49.082;8.200;2022-11-13T03:10:24;37.63;;;20.30;;
7199;SDS011;3641;49.082;8.200;2022-11-13T03:12:50;38.88;;;20.00;;
7199;SDS011;3641;49.082;8.200;2022-11-13T03:15:17;38.47;;;20.58;;
7199;SDS011;3641;49.082;8.200;2022-11-13T03:17:45;45.35;;;21.83;;
7199;SDS011;3641;49.082;8.200;2022-11-13T03:20:11;41.22;;;20.55;;
7199;SDS011;3641;49.082;8.200;2022-11-13T03:22:38;43.88;;;21.70;;
7199;SDS011;3641;49.082;8.200;2022-11-13T03:25:05;44.05;;;22.75;;
7199;SDS011;3641;49.082;8.200;2022-11-13T03:27:32;39.75;;;20.85;;
7199;SDS011;3641;49.082;8.200;2022-11-13T03:29:59;39.83;;;20.33;;
7199;SDS011;3641;49.082;8.200;2022-11-13T03:32:25;44.53;;;22.48;;
7199;SDS011;3641;49.082;8.200;2022-11-13T03:34:53;44.00;;;21.83;;
7199;SDS011;3641;49.082;8.200;2022-11-13T03:37:20;40.38;;;20.60;;
7199;SDS011;3641;49.082;8.200;2022-11-13T03:39:46;47.20;;;22.65;;
7199;SDS011;3641;49.082;8.200;2022-11-13T03:42:13;45.63;;;22.17;;
7199;SDS011;3641;49.082;8.200;2022-11-13T03:44:39;47.15;;;21.95;;
7199;SDS011;3641;49.082;8.200;2022-11-13T03:47:06;50.00;;;22.85;;
7199;SDS011;3641;49.082;8.200;2022-11-13T03:49:32;44.08;;;22.38;;
7199;SDS011;3641;49.082;8.200;2022-11-13T03:52:00;53.67;;;22.58;;
7199;SDS011;3641;49.082;8.200;2022-11-13T03:54:27;46.47;;;23.65;;
7199;SDS011;3641;49.082;8.200;2022-11-13T03:56:53;46.78;;;22.73;;
7199;SDS011;3641;49.082;8.200;2022-11-13T03:59:20;48.17;;;22.02;;
7199;SDS011;3641;49.082;8.200;2022-11-13T04:01:54;45.63;;;22.70;;
7199;SDS011;3641;49.082;8.200;2022-11-13T04:04:20;48.00;;;23.98;;
7199;SDS011;3641;49.082;8.200;2022-11-13T04:06:47;45.97;;;22.35;;
7199;SDS011;3641;49.082;8.200;2022-11-13T04:09:15;49.35;;;24.27;;
7199;SDS011;3641;49.082;8.200;2022-11-13T04:11:42;50.28;;;24.27;;
7199;SDS011;3641;49.082;8.200;2022-11-13T04:14:08;50.45;;;24.25;;
7199;SDS011;3641;49.082;8.200;2022-11-13T04:16:35;48.60;;;23.95;;
7199;SDS011;3641;49.082;8.200;2022-11-13T04:19:01;48.92;;;24.00;;
7199;SDS011;3641;49.082;8.200;2022-11-13T04:21:28;50.67;;;24.05;;
7199;SDS011;3641;49.082;8.200;2022-11-13T04:23:55;53.17;;;24.80;;
7199;SDS011;3641;49.082;8.200;2022-11-13T04:26:23;52.20;;;24.33;;
7199;SDS011;3641;49.082;8.200;2022-11-13T04:28:49;56.78;;;26.23;;
7199;SDS011;3641;49.082;8.200;2022-11-13T04:31:16;55.22;;;25.52;;
7199;SDS011;3641;49.082;8.200;2022-11-13T04:33:42;55.00;;;25.00;;
7199;SDS011;3641;49.082;8.200;2022-11-13T04:36:09;53.58;;;26.08;;
7199;SDS011;3641;49.082;8.200;2022-11-13T04:38:36;58.92;;;25.92;;
7199;SDS011;3641;49.082;8.200;2022-11-13T04:41:02;53.28;;;25.63;;
7199;SDS011;3641;49.082;8.200;2022-11-13T04:43:44;55.08;;;25.45;;
7199;SDS011;3641;49.082;8.200;2022-11-13T04:46:10;55.78;;;26.25;;
7199;SDS011;3641;49.082;8.200;2022-11-13T04:48:37;53.03;;;25.05;;
7199;SDS011;3641;49.082;8.200;2022-11-13T04:51:04;57.33;;;26.40;;
7199;SDS011;3641;49.082;8.200;2022-11-13T04:53:30;53.88;;;25.33;;
7199;SDS011;3641;49.082;8.200;2022-11-13T04:55:58;54.22;;;25.23;;
7199;SDS011;3641;49.082;8.200;2022-11-13T04:58:25;61.88;;;26.50;;
7199;SDS011;3641;49.082;8.200;2022-11-13T05:00:53;62.35;;;25.88;;
7199;SDS011;3641;49.082;8.200;2022-11-13T05:03:19;56.08;;;24.42;;
7199;SDS011;3641;49.082;8.200;2022-11-13T05:05:46;55.38;;;24.50;;
7199;SDS011;3641;49.082;8.200;2022-11-13T05:08:12;57.15;;;24.60;;
7199;SDS011;3641;49.082;8.200;2022-11-13T05:10:39;54.95;;;24.90;;
7199;SDS011;3641;49.082;8.200;2022-11-13T05:13:06;51.72;;;23.65;;
7199;SDS011;3641;49.082;8.200;2022-11-13T05:15:33;49.50;;;23.20;;
7199;SDS011;3641;49.082;8.200;2022-11-13T05:18:01;50.45;;;22.95;;
7199;SDS011;3641;49.082;8.200;2022-11-13T05:20:27;47.50;;;21.80;;
7199;SDS011;3641;49.082;8.200;2022-11-13T05:22:54;52.50;;;23.33;;
7199;SDS011;3641;49.082;8.200;2022-11-13T05:25:20;49.55;;;21.55;;
7199;SDS011;3641;49.082;8.200;2022-11-13T05:27:47;45.58;;;22.02;;
7199;SDS011;3641;49.082;8.200;2022-11-13T05:30:14;44.30;;;21.52;;
7199;SDS011;3641;49.082;8.200;2022-11-13T05:32:41;43.15;;;21.02;;
7199;SDS011;3641;49.082;8.200;2022-11-13T05:35:09;42.85;;;20.35;;
7199;SDS011;3641;49.082;8.200;2022-11-13T05:37:35;43.22;;;20.80;;
7199;SDS011;3641;49.082;8.200;2022-11-13T05:40:02;40.53;;;20.73;;
7199;SDS011;3641;49.082;8.200;2022-11-13T05:42:29;40.10;;;20.50;;
7199;SDS011;3641;49.082;8.200;2022-11-13T05:44:56;38.97;;;19.25;;
7199;SDS011;3641;49.082;8.200;2022-11-13T05:47:22;41.28;;;19.80;;
7199;SDS011;3641;49.082;8.200;2022-11-13T05:49:49;41.00;;;20.48;;
7199;SDS011;3641;49.082;8.200;2022-11-13T05:52:17;40.05;;;19.17;;
7199;SDS011;3641;49.082;8.200;2022-11-13T05:54:43;37.92;;;19.70;;
7199;SDS011;3641;49.082;8.200;2022-11-13T05:57:10;38.50;;;18.40;;
7199;SDS011;3641;49.082;8.200;2022-11-13T05:59:36;37.88;;;18.42;;
7199;SDS011;3641;49.082;8.200;2022-11-13T06:02:03;33.05;;;17.38;;
7199;SDS011;3641;49.082;8.200;2022-11-13T06:04:29;33.83;;;17.45;;
7199;SDS011;3641;49.082;8.200;2022-11-13T06:06:56;31.08;;;15.57;;
7199;SDS011;3641;49.082;8.200;2022-11-13T06:09:26;33.83;;;16.13;;
7199;SDS011;3641;49.082;8.200;2022-11-13T06:11:53;32.53;;;16.45;;
7199;SDS011;3641;49.082;8.200;2022-11-13T06:14:19;32.40;;;16.77;;
7199;SDS011;3641;49.082;8.200;2022-11-13T06:16:46;31.17;;;16.40;;
7199;SDS011;3641;49.082;8.200;2022-11-13T06:19:13;38.70;;;15.55;;
7199;SDS011;3641;49.082;8.200;2022-11-13T06:21:39;38.33;;;15.25;;
7199;SDS011;3641;49.082;8.200;2022-11-13T06:24:06;39.20;;;16.38;;
7199;SDS011;3641;49.082;8.200;2022-11-13T06:26:37;28.85;;;15.27;;
7199;SDS011;3641;49.082;8.200;2022-11-13T06:29:04;29.30;;;15.77;;
7199;SDS011;3641;49.082;8.200;2022-11-13T06:31:33;32.55;;;16.00;;
7199;SDS011;3641;49.082;8.200;2022-11-13T06:34:01;30.38;;;16.17;;
7199;SDS011;3641;49.082;8.200;2022-11-13T06:36:29;33.08;;;16.98;;
7199;SDS011;3641;49.082;8.200;2022-11-13T06:38:57;34.47;;;17.27;;
7199;SDS011;3641;49.082;8.200;2022-11-13T06:41:24;36.00;;;18.13;;
7199;SDS011;3641;49.082;8.200;2022-11-13T06:43:54;36.13;;;17.85;;
7199;SDS011;3641;49.082;8.200;2022-11-13T06:46:23;37.40;;;16.98;;
7199;SDS011;3641;49.082;8.200;2022-11-13T06:48:51;32.08;;;17.48;;
7199;SDS011;3641;49.082;8.200;2022-11-13T06:51:18;32.80;;;16.88;;
7199;SDS011;3641;49.082;8.200;2022-11-13T06:53:47;29.02;;;15.20;;
7199;SDS011;3641;49.082;8.200;2022-11-13T06:56:14;29.83;;;15.43;;
7199;SDS011;3641;49.082;8.200;2022-11-13T06:58:41;33.47;;;16.90;;
7199;SDS011;3641;49.082;8.200;2022-11-13T07:01:10;35.08;;;16.10;;
7199;SDS011;3641;49.082;8.200;2022-11-13T07:03:38;32.65;;;16.67;;
7199;SDS011;3641;49.082;8.200;2022-11-13T07:06:05;31.83;;;16.60;;
7199;SDS011;3641;49.082;8.200;2022-11-13T07:08:33;29.77;;;16.00;;
7199;SDS011;3641;49.082;8.200;2022-11-13T07:11:00;32.40;;;16.55;;
7199;SDS011;3641;49.082;8.200;2022-11-13T07:13:27;32.90;;;17.65;;
7199;SDS011;3641;49.082;8.200;2022-11-13T07:15:54;34.95;;;16.70;;
7199;SDS011;3641;49.082;8.200;2022-11-13T07:18:27;37.08;;;16.20;;
7199;SDS011;3641;49.082;8.200;2022-11-13T07:20:54;35.88;;;16.20;;
7199;SDS011;3641;49.082;8.200;2022-11-13T07:23:21;31.98;;;16.38;;
7199;SDS011;3641;49.082;8.200;2022-11-13T07:25:47;36.53;;;16.77;;
7199;SDS011;3641;49.082;8.200;2022-11-13T07:28:14;35.08;;;17.92;;
7199;SDS011;3641;49.082;8.200;2022-11-13T07:30:40;36.95;;;17.58;;
7199;SDS011;3641;49.082;8.200;2022-11-13T07:33:07;34.42;;;17.83;;
7199;SDS011;3641;49.082;8.200;2022-11-13T07:35:35;34.20;;;18.13;;
7199;SDS011;3641;49.082;8.200;2022-11-13T07:38:01;31.75;;;17.65;;
7199;SDS011;3641;49.082;8.200;2022-11-13T07:40:28;37.67;;;16.98;;
7199;SDS011;3641;49.082;8.200;2022-11-13T07:42:55;34.25;;;16.75;;
7199;SDS011;3641;49.082;8.200;2022-11-13T07:45:23;33.92;;;17.85;;
7199;SDS011;3641;49.082;8.200;2022-11-13T07:47:49;31.05;;;17.05;;
7199;SDS011;3641;49.082;8.200;2022-11-13T07:50:16;35.15;;;17.42;;
7199;SDS011;3641;49.082;8.200;2022-11-13T07:52:44;37.15;;;17.02;;
7199;SDS011;3641;49.082;8.200;2022-11-13T07:55:11;34.85;;;17.98;;
7199;SDS011;3641;49.082;8.200;2022-11-13T07:57:37;33.45;;;16.80;;
7199;SDS011;3641;49.082;8.200;2022-11-13T08:00:04;35.17;;;17.95;;
7199;SDS011;3641;49.082;8.200;2022-11-13T08:02:31;35.63;;;17.35;;
7199;SDS011;3641;49.082;8.200;2022-11-13T08:04:58;36.10;;;18.20;;
7199;SDS011;3641;49.082;8.200;2022-11-13T08:07:25;35.47;;;18.08;;
7199;SDS011;3641;49.082;8.200;2022-11-13T08:09:52;35.75;;;18.45;;
7199;SDS011;3641;49.082;8.200;2022-11-13T08:12:19;40.47;;;17.10;;
7199;SDS011;3641;49.082;8.200;2022-11-13T08:14:45;37.35;;;18.20;;
7199;SDS011;3641;49.082;8.200;2022-11-13T08:17:12;37.30;;;19.15;;
7199;SDS011;3641;49.082;8.200;2022-11-13T08:19:38;44.70;;;19.08;;
7199;SDS011;3641;49.082;8.200;2022-11-13T08:22:05;38.08;;;18.98;;
7199;SDS011;3641;49.082;8.200;2022-11-13T08:24:32;43.55;;;20.08;;
7199;SDS011;3641;49.082;8.200;2022-11-13T08:27:00;42.65;;;20.40;;
7199;SDS011;3641;49.082;8.200;2022-11-13T08:29:26;42.00;;;21.70;;
7199;SDS011;3641;49.082;8.200;2022-11-13T08:31:53;41.40;;;21.00;;
7199;SDS011;3641;49.082;8.200;2022-11-13T08:34:19;41.20;;;20.15;;
7199;SDS011;3641;49.082;8.200;2022-11-13T08:36:46;37.55;;;19.23;;
7199;SDS011;3641;49.082;8.200;2022-11-13T08:39:13;42.85;;;20.92;;
7199;SDS011;3641;49.082;8.200;2022-11-13T08:41:39;43.20;;;21.40;;
7199;SDS011;3641;49.082;8.200;2022-11-13T08:44:07;42.95;;;21.85;;
7199;SDS011;3641;49.082;8.200;2022-11-13T08:46:34;43.65;;;21.20;;
7199;SDS011;3641;49.082;8.200;2022-11-13T08:49:00;42.25;;;21.38;;
7199;SDS011;3641;49.082;8.200;2022-11-13T08:51:27;44.97;;;23.45;;
7199;SDS011;3641;49.082;8.200;2022-11-13T08:53:53;45.63;;;23.30;;
7199;SDS011;3641;49.082;8.200;2022-11-13T08:56:20;46.75;;;22.92;;
7199;SDS011;3641;49.082;8.200;2022-11-13T08:58:47;45.20;;;22.95;;
7199;SDS011;3641;49.082;8.200;2022-11-13T09:01:14;46.33;;;23.05;;
7199;SDS011;3641;49.082;8.200;2022-11-13T09:03:41;46.22;;;22.50;;
7199;SDS011;3641;49.082;8.200;2022-11-13T09:06:08;42.03;;;21.25;;
7199;SDS011;3641;49.082;8.200;2022-11-13T09:08:35;41.70;;;22.02;;
7199;SDS011;3641;49.082;8.200;2022-11-13T09:11:02;42.20;;;21.95;;
7199;SDS011;3641;49.082;8.200;2022-11-13T09:13:29;43.03;;;22.58;;
7199;SDS011;3641;49.082;8.200;2022-11-13T09:15:56;41.90;;;21.58;;
7199;SDS011;3641;49.082;8.200;2022-11-13T09:18:24;43.92;;;21.25;;
7199;SDS011;3641;49.082;8.200;2022-11-13T09:20:51;45.95;;;22.10;;
7199;SDS011;3641;49.082;8.200;2022-11-13T09:23:18;41.55;;;20.90;;
7199;SDS011;3641;49.082;8.200;2022-11-13T09:25:44;39.25;;;21.17;;
7199;SDS011;3641;49.082;8.200;2022-11-13T09:28:11;43.70;;;23.05;;
7199;SDS011;3641;49.082;8.200;2022-11-13T09:30:38;43.13;;;21.88;;
7199;SDS011;3641;49.082;8.200;2022-11-13T09:33:05;39.60;;;20.42;;
7199;SDS011;3641;49.082;8.200;2022-11-13T09:35:35;39.13;;;20.83;;
7199;SDS011;3641;49.082;8.200;2022-11-13T09:38:02;37.95;;;20.85;;
7199;SDS011;3641;49.082;8.200;2022-11-13T09:40:31;37.22;;;20.38;;
7199;SDS011;3641;49.082;8.200;2022-11-13T09:43:00;36.40;;;19.52;;
7199;SDS011;3641;49.082;8.200;2022-11-13T09:45:28;36.10;;;19.42;;
7199;SDS011;3641;49.082;8.200;2022-11-13T09:47:57;34.88;;;19.73;;
7199;SDS011;3641;49.082;8.200;2022-11-13T09:50:31;37.20;;;20.42;;
7199;SDS011;3641;49.082;8.200;2022-11-13T09:53:00;34.40;;;19.42;;
7199;SDS011;3641;49.082;8.200;2022-11-13T09:55:30;34.45;;;19.58;;
7199;SDS011;3641;49.082;8.200;2022-11-13T09:58:04;30.95;;;18.65;;
7199;SDS011;3641;49.082;8.200;2022-11-13T10:00:36;34.45;;;18.65;;
7199;SDS011;3641;49.082;8.200;2022-11-13T10:03:09;32.28;;;18.92;;
7199;SDS011;3641;49.082;8.200;2022-11-13T10:05:50;30.98;;;18.33;;
7199;SDS011;3641;49.082;8.200;2022-11-13T10:08:25;29.98;;;17.02;;
7199;SDS011;3641;49.082;8.200;2022-11-13T10:10:56;30.30;;;17.02;;
7199;SDS011;3641;49.082;8.200;2022-11-13T10:13:30;30.95;;;17.88;;
7199;SDS011;3641;49.082;8.200;2022-11-13T10:16:02;30.23;;;18.00;;
7199;SDS011;3641;49.082;8.200;2022-11-13T10:18:32;29.95;;;17.52;;
7199;SDS011;3641;49.082;8.200;2022-11-13T10:21:08;30.25;;;18.77;;
7199;SDS011;3641;49.082;8.200;2022-11-13T10:23:41;30.27;;;18.73;;
7199;SDS011;3641;49.082;8.200;2022-11-13T10:26:13;31.63;;;18.40;;
7199;SDS011;3641;49.082;8.200;2022-11-13T10:28:41;31.23;;;18.67;;
7199;SDS011;3641;49.082;8.200;2022-11-13T10:31:08;28.50;;;18.30;;
7199;SDS011;3641;49.082;8.200;2022-11-13T10:33:35;30.98;;;19.42;;
7199;SDS011;3641;49.082;8.200;2022-11-13T10:36:03;29.08;;;18.02;;
7199;SDS011;3641;49.082;8.200;2022-11-13T10:38:39;31.52;;;18.35;;
7199;SDS011;3641;49.082;8.200;2022-11-13T10:41:14;30.58;;;18.95;;
7199;SDS011;3641;49.082;8.200;2022-11-13T10:43:56;30.92;;;19.63;;
7199;SDS011;3641;49.082;8.200;2022-11-13T10:46:24;29.45;;;17.85;;
7199;SDS011;3641;49.082;8.200;2022-11-13T10:48:53;33.28;;;19.25;;
7199;SDS011;3641;49.082;8.200;2022-11-13T10:51:22;31.75;;;19.08;;
7199;SDS011;3641;49.082;8.200;2022-11-13T10:53:51;29.00;;;18.23;;
7199;SDS011;3641;49.082;8.200;2022-11-13T10:56:20;30.52;;;18.77;;
7199;SDS011;3641;49.082;8.200;2022-11-13T10:59:00;30.95;;;18.52;;
7199;SDS011;3641;49.082;8.200;2022-11-13T11:01:28;28.80;;;17.95;;
7199;SDS011;3641;49.082;8.200;2022-11-13T11:03:55;28.35;;;18.10;;
7199;SDS011;3641;49.082;8.200;2022-11-13T11:06:29;30.55;;;19.85;;
7199;SDS011;3641;49.082;8.200;2022-11-13T11:09:05;28.80;;;18.23;;
7199;SDS011;3641;49.082;8.200;2022-11-13T11:11:33;28.77;;;17.75;;
7199;SDS011;3641;49.082;8.200;2022-11-13T11:14:18;30.20;;;17.77;;
7199;SDS011;3641;49.082;8.200;2022-11-13T11:16:48;29.38;;;18.10;;
7199;SDS011;3641;49.082;8.200;2022-11-13T11:19:17;31.75;;;19.45;;
7199;SDS011;3641;49.082;8.200;2022-11-13T11:21:46;29.00;;;18.67;;
7199;SDS011;3641;49.082;8.200;2022-11-13T11:24:18;28.05;;;17.77;;
7199;SDS011;3641;49.082;8.200;2022-11-13T11:26:49;27.40;;;16.30;;
7199;SDS011;3641;49.082;8.200;2022-11-13T11:29:24;27.63;;;16.75;;
7199;SDS011;3641;49.082;8.200;2022-11-13T11:31:54;32.08;;;18.27;;
7199;SDS011;3641;49.082;8.200;2022-11-13T11:34:28;28.83;;;17.00;;
7199;SDS011;3641;49.082;8.200;2022-11-13T11:39:41;27.25;;;17.95;;
7199;SDS011;3641;49.082;8.200;2022-11-13T11:42:20;28.70;;;17.73;;
7199;SDS011;3641;49.082;8.200;2022-11-13T11:44:54;26.55;;;16.92;;
7199;SDS011;3641;49.082;8.200;2022-11-13T11:47:28;28.23;;;17.02;;
7199;SDS011;3641;49.082;8.200;2022-11-13T11:49:55;28.23;;;17.70;;
7199;SDS011;3641;49.082;8.200;2022-11-13T11:52:26;26.35;;;16.90;;
7199;SDS011;3641;49.082;8.200;2022-11-13T11:55:06;24.65;;;16.50;;
7199;SDS011;3641;49.082;8.200;2022-11-13T11:57:46;27.27;;;17.75;;
7199;SDS011;3641;49.082;8.200;2022-11-13T12:00:17;25.88;;;16.83;;
7199;SDS011;3641;49.082;8.200;2022-11-13T12:02:50;24.95;;;16.92;;
7199;SDS011;3641;49.082;8.200;2022-11-13T12:05:29;28.63;;;16.95;;
7199;SDS011;3641;49.082;8.200;2022-11-13T12:08:07;25.17;;;15.40;;
7199;SDS011;3641;49.082;8.200;2022-11-13T12:10:45;25.67;;;16.40;;
7199;SDS011;3641;49.082;8.200;2022-11-13T12:13:21;27.02;;;15.52;;
7199;SDS011;3641;49.082;8.200;2022-11-13T12:15:55;23.13;;;14.90;;
7199;SDS011;3641;49.082;8.200;2022-11-13T12:18:26;24.02;;;15.65;;
7199;SDS011;3641;49.082;8.200;2022-11-13T12:21:04;24.42;;;15.55;;
7199;SDS011;3641;49.082;8.200;2022-11-13T12:23:43;22.95;;;15.27;;
7199;SDS011;3641;49.082;8.200;2022-11-13T12:26:24;24.67;;;15.77;;
7199;SDS011;3641;49.082;8.200;2022-11-13T12:28:54;28.00;;;16.88;;
7199;SDS011;3641;49.082;8.200;2022-11-13T12:31:36;23.92;;;14.85;;
7199;SDS011;3641;49.082;8.200;2022-11-13T12:34:13;25.80;;;15.35;;
7199;SDS011;3641;49.082;8.200;2022-11-13T12:36:46;25.13;;;14.40;;
7199;SDS011;3641;49.082;8.200;2022-11-13T12:39:24;22.30;;;13.50;;
7199;SDS011;3641;49.082;8.200;2022-11-13T12:41:59;20.67;;;12.60;;
7199;SDS011;3641;49.082;8.200;2022-11-13T12:44:35;19.90;;;12.90;;
7199;SDS011;3641;49.082;8.200;2022-11-13T12:47:10;20.13;;;13.52;;
7199;SDS011;3641;49.082;8.200;2022-11-13T12:49:37;19.60;;;12.25;;
7199;SDS011;3641;49.082;8.200;2022-11-13T12:52:04;18.88;;;11.85;;
7199;SDS011;3641;49.082;8.200;2022-11-13T12:54:44;19.10;;;12.48;;
7199;SDS011;3641;49.082;8.200;2022-11-13T12:57:20;19.38;;;12.20;;
7199;SDS011;3641;49.082;8.200;2022-11-13T12:59:50;18.80;;;11.45;;
7199;SDS011;3641;49.082;8.200;2022-11-13T13:03:15;19.25;;;11.32;;
7199;SDS011;3641;49.082;8.200;2022-11-13T13:05:56;17.27;;;11.05;;
7199;SDS011;3641;49.082;8.200;2022-11-13T13:08:44;18.55;;;10.40;;
7199;SDS011;3641;49.082;8.200;2022-11-13T13:11:16;17.63;;;10.52;;
7199;SDS011;3641;49.082;8.200;2022-11-13T13:13:52;17.55;;;10.38;;
7199;SDS011;3641;49.082;8.200;2022-11-13T13:16:29;16.50;;;10.68;;
7199;SDS011;3641;49.082;8.200;2022-11-13T13:19:04;16.13;;;10.23;;
7199;SDS011;3641;49.082;8.200;2022-11-13T13:21:38;17.27;;;10.88;;
7199;SDS011;3641;49.082;8.200;2022-11-13T13:24:06;16.92;;;10.45;;
7199;SDS011;3641;49.082;8.200;2022-11-13T13:26:42;17.40;;;10.85;;
7199;SDS011;3641;49.082;8.200;2022-11-13T13:29:15;17.13;;;11.07;;
7199;SDS011;3641;49.082;8.200;2022-11-13T13:31:46;18.80;;;11.05;;
7199;SDS011;3641;49.082;8.200;2022-11-13T13:34:21;18.38;;;10.90;;
7199;SDS011;3641;49.082;8.200;2022-11-13T13:36:56;18.83;;;11.48;;
7199;SDS011;3641;49.082;8.200;2022-11-13T13:39:32;17.48;;;11.73;;
7199;SDS011;3641;49.082;8.200;2022-11-13T13:42:15;19.08;;;11.35;;
7199;SDS011;3641;49.082;8.200;2022-11-13T13:44:58;16.98;;;10.75;;
7199;SDS011;3641;49.082;8.200;2022-11-13T13:47:37;17.90;;;10.32;;
7199;SDS011;3641;49.082;8.200;2022-11-13T13:50:06;18.10;;;11.25;;
7199;SDS011;3641;49.082;8.200;2022-11-13T13:52:39;16.27;;;10.70;;
7199;SDS011;3641;49.082;8.200;2022-11-13T13:55:14;17.15;;;10.85;;
7199;SDS011;3641;49.082;8.200;2022-11-13T13:57:42;17.27;;;10.48;;
7199;SDS011;3641;49.082;8.200;2022-11-13T14:00:12;16.52;;;10.80;;
7199;SDS011;3641;49.082;8.200;2022-11-13T14:02:44;17.17;;;9.88;;
7199;SDS011;3641;49.082;8.200;2022-11-13T14:05:16;15.88;;;10.65;;
7199;SDS011;3641;49.082;8.200;2022-11-13T14:07:50;16.27;;;10.38;;
7199;SDS011;3641;49.082;8.200;2022-11-13T14:10:17;17.75;;;10.40;;
7199;SDS011;3641;49.082;8.200;2022-11-13T14:12:46;15.75;;;10.73;;
7199;SDS011;3641;49.082;8.200;2022-11-13T14:15:24;16.27;;;10.75;;
7199;SDS011;3641;49.082;8.200;2022-11-13T14:18:03;18.73;;;12.80;;
7199;SDS011;3641;49.082;8.200;2022-11-13T14:20:34;16.75;;;11.05;;
7199;SDS011;3641;49.082;8.200;2022-11-13T14:23:05;18.85;;;11.45;;
7199;SDS011;3641;49.082;8.200;2022-11-13T14:25:35;18.80;;;11.98;;
7199;SDS011;3641;49.082;8.200;2022-11-13T14:28:02;18.58;;;12.18;;
7199;SDS011;3641;49.082;8.200;2022-11-13T14:30:31;17.33;;;11.52;;
7199;SDS011;3641;49.082;8.200;2022-11-13T14:32:57;18.33;;;11.45;;
7199;SDS011;3641;49.082;8.200;2022-11-13T14:35:27;24.40;;;12.52;;
7199;SDS011;3641;49.082;8.200;2022-11-13T14:37:53;17.10;;;11.52;;
7199;SDS011;3641;49.082;8.200;2022-11-13T14:40:21;17.35;;;11.60;;
7199;SDS011;3641;49.082;8.200;2022-11-13T14:42:51;18.10;;;12.35;;
7199;SDS011;3641;49.082;8.200;2022-11-13T14:45:22;15.05;;;9.88;;
7199;SDS011;3641;49.082;8.200;2022-11-13T14:47:56;18.13;;;11.82;;
7199;SDS011;3641;49.082;8.200;2022-11-13T14:50:25;15.77;;;11.30;;
7199;SDS011;3641;49.082;8.200;2022-11-13T14:52:59;19.30;;;12.50;;
7199;SDS011;3641;49.082;8.200;2022-11-13T14:55:28;20.70;;;11.93;;
7199;SDS011;3641;49.082;8.200;2022-11-13T14:57:56;17.30;;;11.07;;
7199;SDS011;3641;49.082;8.200;2022-11-13T15:00:27;16.70;;;11.18;;
7199;SDS011;3641;49.082;8.200;2022-11-13T15:02:57;19.85;;;12.40;;